createdAt,value
2017-12-22T00:01:52.956Z,65.60
2017-12-22T00:04:20.362Z,50.60
2017-12-22T00:06:47.759Z,57.00
2017-12-22T00:09:15.915Z,58.20
2017-12-22T00:11:43.307Z,65.10
2017-12-22T00:14:10.707Z,58.27
2017-12-22T00:16:38.104Z,57.93
2017-12-22T00:19:05.500Z,59.57
2017-12-22T00:21:32.905Z,65.27
2017-12-22T00:24:00.303Z,55.57
2017-12-22T00:26:27.704Z,59.87
2017-12-22T00:28:55.153Z,61.87
2017-12-22T00:31:22.527Z,62.63
2017-12-22T00:33:49.931Z,65.70
2017-12-22T00:36:17.336Z,62.27
2017-12-22T00:38:44.738Z,55.70
2017-12-22T00:41:12.137Z,69.00
2017-12-22T00:43:39.554Z,62.73
2017-12-22T00:46:06.950Z,57.30
2017-12-22T00:48:34.403Z,59.67
2017-12-22T00:51:01.798Z,59.07
2017-12-22T00:53:29.206Z,64.57
2017-12-22T00:55:57.664Z,64.77
2017-12-22T00:58:25.056Z,53.50
2017-12-22T01:00:52.467Z,60.77
2017-12-22T01:03:19.934Z,57.77
2017-12-22T01:05:47.336Z,53.50
2017-12-22T01:08:14.739Z,56.60
2017-12-22T01:10:42.126Z,60.13
2017-12-22T01:13:09.533Z,71.07
2017-12-22T01:15:42.486Z,56.60
2017-12-22T01:18:15.575Z,59.97
2017-12-22T01:20:42.983Z,62.80
2017-12-22T01:23:10.379Z,57.50
2017-12-22T01:25:37.815Z,75.70
2017-12-22T01:28:05.218Z,65.70
2017-12-22T01:30:32.620Z,66.10
2017-12-22T01:33:00.008Z,64.50
2017-12-22T01:35:27.403Z,59.43
2017-12-22T01:37:54.802Z,54.20
2017-12-22T01:40:22.199Z,56.93
2017-12-22T01:42:49.682Z,61.53
2017-12-22T01:45:17.085Z,56.13
2017-12-22T01:47:44.475Z,53.80
2017-12-22T01:50:11.880Z,57.53
2017-12-22T01:52:39.275Z,55.37
2017-12-22T01:55:06.674Z,55.03
2017-12-22T01:57:34.064Z,53.63
2017-12-22T02:00:01.506Z,62.13
2017-12-22T02:02:28.927Z,60.87
2017-12-22T02:04:56.326Z,60.30
2017-12-22T02:07:23.719Z,52.00
2017-12-22T02:09:51.120Z,52.50
2017-12-22T02:12:18.547Z,54.20
2017-12-22T02:14:45.939Z,58.87
2017-12-22T02:17:13.331Z,70.17
2017-12-22T02:19:40.778Z,56.80
2017-12-22T02:22:08.207Z,50.03
2017-12-22T02:24:35.610Z,59.70
2017-12-22T02:27:03.015Z,59.03
2017-12-22T02:29:30.408Z,61.47
2017-12-22T02:31:58.039Z,53.97
2017-12-22T02:34:31.251Z,69.30
2017-12-22T02:36:58.741Z,52.23
2017-12-22T02:39:26.203Z,64.97
2017-12-22T02:41:53.658Z,58.50
2017-12-22T02:44:21.048Z,71.03
2017-12-22T02:46:48.443Z,63.80
2017-12-22T02:49:15.836Z,63.77
2017-12-22T02:51:43.240Z,59.07
2017-12-22T02:54:10.637Z,61.27
2017-12-22T02:56:38.040Z,63.40
2017-12-22T02:59:05.431Z,70.63
2017-12-22T03:01:32.835Z,66.00
2017-12-22T03:04:00.227Z,70.83
2017-12-22T03:06:27.643Z,68.57
2017-12-22T03:08:55.030Z,68.90
2017-12-22T03:11:22.431Z,61.03
2017-12-22T03:13:49.832Z,55.90
2017-12-22T03:16:17.289Z,72.27
2017-12-22T03:18:44.678Z,68.63
2017-12-22T03:21:12.080Z,81.20
2017-12-22T03:23:39.471Z,77.57
2017-12-22T03:26:06.870Z,78.00
2017-12-22T03:28:34.268Z,83.20
2017-12-22T03:31:01.674Z,74.65
2017-12-22T03:33:29.063Z,71.63
2017-12-22T03:35:56.476Z,72.03
2017-12-22T03:38:23.863Z,66.80
2017-12-22T03:40:51.263Z,65.67
2017-12-22T03:43:18.663Z,66.80
2017-12-22T03:45:46.063Z,77.27
2017-12-22T03:48:13.467Z,83.03
2017-12-22T03:50:40.867Z,93.37
2017-12-22T03:53:08.264Z,98.43
2017-12-22T03:55:35.662Z,89.60
2017-12-22T03:58:03.071Z,91.50
2017-12-22T04:00:30.472Z,78.83
2017-12-22T04:02:57.892Z,83.63
2017-12-22T04:05:25.289Z,92.60
2017-12-22T04:07:52.778Z,78.37
2017-12-22T04:10:20.171Z,86.53
2017-12-22T04:12:47.576Z,74.27
2017-12-22T04:15:14.979Z,86.33
2017-12-22T04:17:42.407Z,83.60
2017-12-22T04:20:09.843Z,79.87
2017-12-22T04:22:37.239Z,65.93
2017-12-22T04:25:04.634Z,74.13
2017-12-22T04:27:32.058Z,81.30
2017-12-22T04:29:59.450Z,83.30
2017-12-22T04:32:26.854Z,80.63
2017-12-22T04:34:54.248Z,71.23
2017-12-22T04:37:21.651Z,62.50
2017-12-22T04:39:49.045Z,57.60
2017-12-22T04:42:16.452Z,52.70
2017-12-22T04:44:43.840Z,53.07
2017-12-22T04:47:11.782Z,59.77
2017-12-22T04:49:39.179Z,48.67
2017-12-22T04:52:06.584Z,53.27
2017-12-22T04:54:33.970Z,59.30
2017-12-22T04:57:01.498Z,60.77
2017-12-22T04:59:28.971Z,62.87
2017-12-22T05:01:56.332Z,61.77
2017-12-22T05:04:23.731Z,53.43
2017-12-22T05:06:51.211Z,60.13
2017-12-22T05:09:18.600Z,54.83
2017-12-22T05:11:45.998Z,70.73
2017-12-22T05:14:13.402Z,70.77
2017-12-22T05:16:40.812Z,62.30
2017-12-22T05:19:08.208Z,66.57
2017-12-22T05:21:35.619Z,63.73
2017-12-22T05:24:03.027Z,75.43
2017-12-22T05:26:30.431Z,64.77
2017-12-22T05:28:57.920Z,75.63
2017-12-22T05:31:25.303Z,67.80
2017-12-22T05:33:52.696Z,74.30
2017-12-22T05:36:20.105Z,65.50
2017-12-22T05:38:47.499Z,66.60
2017-12-22T05:41:14.917Z,55.73
2017-12-22T05:43:42.307Z,50.90
2017-12-22T05:46:09.791Z,48.67
2017-12-22T05:48:37.182Z,51.23
2017-12-22T05:51:04.607Z,55.50
2017-12-22T05:53:32.060Z,48.33
2017-12-22T05:55:59.459Z,45.10
2017-12-22T05:58:26.871Z,46.10
2017-12-22T06:00:54.279Z,50.93
2017-12-22T06:03:21.667Z,45.00
2017-12-22T06:05:49.070Z,47.80
2017-12-22T06:08:16.459Z,64.53
2017-12-22T06:10:43.887Z,65.07
2017-12-22T06:13:11.294Z,69.57
2017-12-22T06:15:38.683Z,61.83
2017-12-22T06:18:06.115Z,69.73
2017-12-22T06:20:33.507Z,78.97
2017-12-22T06:23:00.909Z,66.30
2017-12-22T06:25:28.300Z,57.67
2017-12-22T06:27:56.346Z,57.67
2017-12-22T06:30:23.738Z,59.20
2017-12-22T06:32:51.138Z,62.73
2017-12-22T06:35:18.532Z,72.00
2017-12-22T06:37:45.934Z,67.40
2017-12-22T06:40:13.351Z,57.00
2017-12-22T06:42:40.748Z,65.60
2017-12-22T06:45:08.162Z,63.33
2017-12-22T06:47:35.562Z,70.50
2017-12-22T06:50:03.058Z,61.17
2017-12-22T06:52:30.458Z,66.13
2017-12-22T06:54:57.851Z,67.73
2017-12-22T06:57:25.260Z,71.20
2017-12-22T06:59:52.647Z,61.10
2017-12-22T07:02:20.046Z,59.95
2017-12-22T07:04:47.442Z,66.43
2017-12-22T07:07:15.768Z,62.27
2017-12-22T07:09:43.186Z,72.13
2017-12-22T07:12:10.651Z,69.37
2017-12-22T07:14:38.140Z,60.43
2017-12-22T07:17:06.175Z,57.60
2017-12-22T07:19:33.574Z,79.30
2017-12-22T07:22:00.975Z,73.13
2017-12-22T07:24:28.468Z,69.33
2017-12-22T07:26:55.846Z,70.77
2017-12-22T07:29:23.244Z,68.80
2017-12-22T07:31:50.651Z,66.37
2017-12-22T07:34:18.097Z,69.53
2017-12-22T07:36:45.482Z,67.20
2017-12-22T07:39:12.886Z,74.60
2017-12-22T07:41:40.305Z,60.13
2017-12-22T07:44:07.703Z,63.40
2017-12-22T07:46:35.107Z,56.80
2017-12-22T07:49:02.495Z,66.53
2017-12-22T07:51:29.992Z,69.67
2017-12-22T07:53:57.379Z,80.40
2017-12-22T07:56:24.778Z,67.87
2017-12-22T07:58:52.186Z,74.80
2017-12-22T08:01:19.578Z,81.57
2017-12-22T08:03:47.042Z,80.13
2017-12-22T08:06:14.442Z,81.73
2017-12-22T08:08:41.861Z,78.33
2017-12-22T08:11:09.251Z,80.37
2017-12-22T08:13:36.651Z,79.17
2017-12-22T08:16:04.071Z,87.70
2017-12-22T08:18:31.584Z,89.33
2017-12-22T08:20:58.973Z,80.27
2017-12-22T08:23:26.536Z,82.03
2017-12-22T08:25:53.926Z,75.20
2017-12-22T08:28:21.327Z,70.47
2017-12-22T08:30:48.750Z,67.90
2017-12-22T08:33:16.151Z,64.00
2017-12-22T08:35:43.544Z,66.73
2017-12-22T08:38:10.973Z,64.67
2017-12-22T08:40:38.403Z,68.93
2017-12-22T08:43:05.796Z,69.57
2017-12-22T08:45:33.255Z,72.60
2017-12-22T08:48:00.650Z,64.17
2017-12-22T08:50:28.063Z,72.07
2017-12-22T08:52:55.470Z,54.30
2017-12-22T08:55:22.860Z,57.30
2017-12-22T08:57:50.259Z,66.97
2017-12-22T09:00:17.651Z,57.30
2017-12-22T09:02:45.055Z,60.80
2017-12-22T09:05:12.448Z,50.63
2017-12-22T09:07:39.858Z,46.53
2017-12-22T09:10:07.300Z,38.77
2017-12-22T09:12:34.695Z,54.33
2017-12-22T09:15:02.087Z,44.97
2017-12-22T09:17:29.507Z,48.40
2017-12-22T09:19:56.946Z,39.67
2017-12-22T09:22:24.347Z,41.47
2017-12-22T09:24:51.734Z,43.80
2017-12-22T09:27:19.184Z,50.60
2017-12-22T09:29:46.539Z,47.60
2017-12-22T09:32:13.943Z,45.17
2017-12-22T09:34:41.387Z,49.47
2017-12-22T09:37:08.959Z,42.80
2017-12-22T09:39:36.360Z,45.27
2017-12-22T09:42:03.855Z,53.10
2017-12-22T09:44:31.251Z,55.03
2017-12-22T09:46:58.679Z,51.00
2017-12-22T09:49:26.075Z,56.27
2017-12-22T09:51:53.477Z,52.80
2017-12-22T09:54:20.866Z,51.77
2017-12-22T09:56:48.295Z,62.17
2017-12-22T09:59:16.488Z,60.83
2017-12-22T10:01:43.876Z,60.80
2017-12-22T10:04:11.274Z,51.33
2017-12-22T10:06:38.714Z,61.67
2017-12-22T10:09:06.100Z,72.97
2017-12-22T10:11:33.487Z,68.63
2017-12-22T10:14:00.882Z,80.90
2017-12-22T10:16:28.279Z,74.27
2017-12-22T10:18:55.675Z,73.33
2017-12-22T10:21:23.080Z,58.57
2017-12-22T10:23:50.486Z,60.33
2017-12-22T10:26:17.977Z,47.50
2017-12-22T10:28:45.379Z,42.77
2017-12-22T10:31:12.779Z,44.72
2017-12-22T10:33:40.171Z,37.73
2017-12-22T10:36:07.563Z,47.43
2017-12-22T10:38:34.974Z,42.90
2017-12-22T10:41:02.372Z,50.67
2017-12-22T10:43:29.779Z,46.47
2017-12-22T10:45:57.176Z,57.90
2017-12-22T10:48:24.591Z,56.97
2017-12-22T10:50:51.992Z,55.27
2017-12-22T10:53:19.399Z,54.53
2017-12-22T10:55:46.793Z,49.40
2017-12-22T10:58:14.290Z,51.53
2017-12-22T11:00:41.683Z,50.47
2017-12-22T11:03:09.085Z,55.23
2017-12-22T11:05:36.506Z,51.10
2017-12-22T11:08:03.903Z,62.77
2017-12-22T11:10:31.296Z,65.70
2017-12-22T11:12:58.727Z,56.93
2017-12-22T11:15:26.123Z,58.03
2017-12-22T11:17:53.527Z,49.27
2017-12-22T11:20:21.073Z,70.03
2017-12-22T11:22:48.455Z,57.77
2017-12-22T11:25:15.921Z,57.07
2017-12-22T11:27:43.267Z,64.90
2017-12-22T11:30:10.742Z,61.33
2017-12-22T11:32:38.134Z,76.07
2017-12-22T11:35:05.527Z,73.33
2017-12-22T11:37:32.920Z,57.07
2017-12-22T11:40:00.318Z,58.73
2017-12-22T11:42:27.726Z,52.60
2017-12-22T11:44:55.121Z,60.43
2017-12-22T11:47:22.551Z,60.17
2017-12-22T11:49:49.946Z,52.30
2017-12-22T11:52:17.397Z,55.80
2017-12-22T11:54:44.791Z,59.40
2017-12-22T11:57:12.189Z,57.20
2017-12-22T11:59:39.595Z,46.53
2017-12-22T12:02:06.999Z,50.90
2017-12-22T12:04:34.400Z,38.33
2017-12-22T12:07:01.815Z,42.37
2017-12-22T12:09:29.271Z,43.90
2017-12-22T12:11:56.667Z,36.17
2017-12-22T12:14:24.700Z,33.93
2017-12-22T12:16:52.083Z,37.33
2017-12-22T12:19:19.486Z,33.73
2017-12-22T12:21:46.886Z,33.30
2017-12-22T12:24:14.340Z,31.47
2017-12-22T12:26:41.744Z,39.77
2017-12-22T12:29:09.143Z,39.63
2017-12-22T12:31:36.545Z,35.23
2017-12-22T12:34:03.959Z,33.73
2017-12-22T12:36:31.395Z,32.70
2017-12-22T12:38:58.790Z,29.07
2017-12-22T12:41:26.197Z,35.77
2017-12-22T12:43:53.597Z,33.93
2017-12-22T12:46:21.003Z,30.93
2017-12-22T12:48:48.423Z,43.47
2017-12-22T12:51:15.821Z,31.30
2017-12-22T12:53:43.278Z,34.00
2017-12-22T12:56:10.681Z,38.37
2017-12-22T12:58:38.074Z,37.33
2017-12-22T13:01:05.471Z,34.87
2017-12-22T13:03:32.878Z,37.33
2017-12-22T13:06:00.270Z,41.00
2017-12-22T13:08:27.672Z,37.27
2017-12-22T13:10:55.220Z,30.57
2017-12-22T13:13:22.659Z,36.13
2017-12-22T13:15:50.059Z,27.37
2017-12-22T13:18:17.479Z,28.60
2017-12-22T13:20:45.085Z,31.10
2017-12-22T13:23:12.491Z,30.53
2017-12-22T13:25:39.891Z,28.13
2017-12-22T13:28:07.291Z,32.23
2017-12-22T13:30:34.724Z,31.37
2017-12-22T13:33:02.106Z,30.13
2017-12-22T13:35:29.498Z,27.63
2017-12-22T13:37:56.899Z,26.80
2017-12-22T13:40:24.290Z,26.43
2017-12-22T13:42:51.707Z,36.10
2017-12-22T13:45:19.103Z,30.17
2017-12-22T13:47:46.490Z,29.33
2017-12-22T13:50:13.883Z,33.33
2017-12-22T13:52:41.286Z,30.00
2017-12-22T13:55:08.926Z,28.53
2017-12-22T13:57:36.370Z,30.33
2017-12-22T14:00:04.076Z,35.38
2017-12-22T14:02:31.470Z,24.93
2017-12-22T14:04:59.676Z,36.50
2017-12-22T14:07:27.092Z,36.03
2017-12-22T14:09:54.493Z,28.03
2017-12-22T14:12:21.891Z,37.53
2017-12-22T14:14:49.300Z,34.33
2017-12-22T14:17:16.745Z,27.73
2017-12-22T14:19:44.088Z,30.80
2017-12-22T14:22:11.487Z,29.53
2017-12-22T14:24:38.891Z,32.40
2017-12-22T14:27:06.287Z,30.63
2017-12-22T14:29:33.683Z,27.00
2017-12-22T14:32:01.527Z,27.13
2017-12-22T14:34:28.947Z,28.33
2017-12-22T14:36:56.343Z,29.60
2017-12-22T14:39:23.743Z,33.53
2017-12-22T14:41:51.149Z,35.23
2017-12-22T14:44:18.534Z,25.27
2017-12-22T14:46:45.927Z,28.00
2017-12-22T14:49:13.330Z,31.07
2017-12-22T14:51:40.826Z,34.73
2017-12-22T14:54:08.247Z,38.67
2017-12-22T14:56:35.640Z,36.07
2017-12-22T14:59:03.039Z,32.97
2017-12-22T15:01:30.431Z,39.93
2017-12-22T15:03:57.839Z,33.53
2017-12-22T15:06:25.230Z,39.00
2017-12-22T15:08:52.626Z,41.77
2017-12-22T15:11:20.025Z,38.50
2017-12-22T15:13:47.429Z,45.40
2017-12-22T15:16:14.844Z,30.97
2017-12-22T15:18:42.247Z,39.37
2017-12-22T15:21:09.638Z,38.30
2017-12-22T15:23:37.143Z,39.03
2017-12-22T15:26:04.543Z,36.40
2017-12-22T15:28:31.955Z,37.57
2017-12-22T15:30:59.346Z,46.93
2017-12-22T15:33:26.767Z,45.43
2017-12-22T15:35:54.170Z,47.20
2017-12-22T15:38:21.560Z,40.70
2017-12-22T15:40:48.951Z,39.50
2017-12-22T15:43:16.347Z,47.87
2017-12-22T15:45:43.754Z,42.20
2017-12-22T15:48:11.147Z,37.73
2017-12-22T15:50:38.690Z,45.40
2017-12-22T15:53:06.087Z,54.13
2017-12-22T15:55:33.486Z,54.43
2017-12-22T15:58:00.935Z,48.60
2017-12-22T16:00:28.338Z,44.20
2017-12-22T16:02:55.737Z,46.13
2017-12-22T16:05:23.136Z,54.47
2017-12-22T16:07:50.523Z,50.37
2017-12-22T16:10:17.927Z,51.07
2017-12-22T16:12:45.331Z,59.10
2017-12-22T16:15:12.724Z,51.43
2017-12-22T16:17:40.110Z,56.30
2017-12-22T16:20:07.507Z,67.13
2017-12-22T16:22:34.898Z,62.33
2017-12-22T16:25:02.322Z,54.07
2017-12-22T16:27:29.699Z,57.33
2017-12-22T16:29:57.102Z,57.73
2017-12-22T16:32:24.500Z,58.20
2017-12-22T16:34:51.890Z,59.87
2017-12-22T16:37:19.303Z,57.87
2017-12-22T16:39:46.702Z,53.83
2017-12-22T16:42:14.091Z,67.50
2017-12-22T16:44:41.569Z,59.03
2017-12-22T16:47:08.974Z,61.00
2017-12-22T16:49:36.358Z,70.07
2017-12-22T16:52:03.756Z,53.97
2017-12-22T16:54:31.155Z,60.93
2017-12-22T16:56:58.661Z,62.57
2017-12-22T16:59:26.067Z,64.73
2017-12-22T17:01:53.470Z,61.20
2017-12-22T17:04:20.876Z,54.27
2017-12-22T17:06:48.267Z,57.90
2017-12-22T17:09:15.688Z,63.07
2017-12-22T17:11:43.099Z,86.43
2017-12-22T17:14:10.498Z,63.97
2017-12-22T17:16:37.897Z,65.40
2017-12-22T17:19:05.291Z,61.63
2017-12-22T17:21:32.678Z,81.43
2017-12-22T17:24:00.085Z,68.80
2017-12-22T17:26:27.470Z,66.47
2017-12-22T17:28:54.867Z,59.43
2017-12-22T17:31:22.267Z,63.60
2017-12-22T17:33:49.676Z,63.13
2017-12-22T17:36:17.058Z,64.07
2017-12-22T17:38:44.451Z,73.03
2017-12-22T17:41:11.855Z,66.00
2017-12-22T17:43:39.248Z,61.23
2017-12-22T17:46:06.653Z,59.23
2017-12-22T17:48:34.037Z,59.10
2017-12-22T17:51:01.445Z,64.30
2017-12-22T17:53:28.831Z,59.27
2017-12-22T17:55:56.239Z,72.97
2017-12-22T17:58:23.635Z,61.77
2017-12-22T18:00:51.137Z,63.60
2017-12-22T18:03:18.572Z,66.00
2017-12-22T18:05:45.971Z,56.87
2017-12-22T18:08:13.363Z,60.47
2017-12-22T18:10:40.772Z,66.87
2017-12-22T18:13:08.191Z,60.13
2017-12-22T18:15:35.588Z,69.70
2017-12-22T18:18:02.979Z,62.33
2017-12-22T18:20:30.374Z,67.17
2017-12-22T18:22:57.886Z,68.50
2017-12-22T18:25:25.279Z,65.40
2017-12-22T18:27:52.682Z,54.97
2017-12-22T18:30:20.082Z,61.23
2017-12-22T18:32:48.478Z,52.57
2017-12-22T18:35:15.874Z,66.97
2017-12-22T18:37:43.279Z,62.17
2017-12-22T18:40:10.686Z,65.37
2017-12-22T18:42:38.079Z,58.97
2017-12-22T18:45:05.489Z,68.60
2017-12-22T18:47:32.883Z,64.67
2017-12-22T18:50:00.288Z,58.30
2017-12-22T18:52:27.683Z,57.33
2017-12-22T18:54:55.084Z,62.33
2017-12-22T18:57:22.474Z,66.60
2017-12-22T18:59:49.885Z,60.83
2017-12-22T19:02:17.274Z,53.27
2017-12-22T19:04:44.764Z,53.87
2017-12-22T19:07:12.134Z,56.37
2017-12-22T19:09:39.563Z,70.33
2017-12-22T19:12:07.034Z,62.47
2017-12-22T19:14:34.449Z,55.27
2017-12-22T19:17:01.835Z,54.30
2017-12-22T19:19:29.257Z,50.07
2017-12-22T19:21:56.731Z,53.97
2017-12-22T19:24:24.138Z,50.63
2017-12-22T19:26:51.639Z,46.00
2017-12-22T19:29:19.030Z,40.00
2017-12-22T19:31:46.440Z,42.40
2017-12-22T19:34:13.848Z,49.53
2017-12-22T19:36:41.280Z,51.60
2017-12-22T19:39:08.676Z,46.67
2017-12-22T19:41:36.075Z,44.37
2017-12-22T19:44:03.476Z,46.07
2017-12-22T19:46:30.881Z,44.37
2017-12-22T19:48:58.278Z,45.30
2017-12-22T19:51:25.682Z,47.73
2017-12-22T19:53:53.147Z,49.03
2017-12-22T19:56:20.550Z,49.10
2017-12-22T19:58:47.943Z,41.83
2017-12-22T20:01:15.363Z,38.07
2017-12-22T20:03:42.778Z,45.47
2017-12-22T20:06:10.175Z,36.97
2017-12-22T20:08:37.571Z,42.80
2017-12-22T20:11:04.975Z,41.80
2017-12-22T20:13:32.373Z,38.70
2017-12-22T20:15:59.777Z,36.73
2017-12-22T20:18:27.166Z,42.47
2017-12-22T20:20:54.569Z,43.03
2017-12-22T20:23:21.956Z,52.17
2017-12-22T20:25:50.337Z,43.83
2017-12-22T20:28:17.742Z,41.93
2017-12-22T20:30:45.144Z,40.03
2017-12-22T20:33:12.575Z,47.00
2017-12-22T20:35:39.996Z,43.87
2017-12-22T20:38:07.383Z,41.67
2017-12-22T20:40:34.798Z,43.00
2017-12-22T20:43:02.247Z,41.47
2017-12-22T20:45:29.591Z,47.10
2017-12-22T20:47:56.993Z,38.10
2017-12-22T20:50:24.387Z,43.30
2017-12-22T20:52:51.807Z,47.17
2017-12-22T20:55:19.212Z,44.63
2017-12-22T20:57:46.683Z,45.00
2017-12-22T21:00:14.174Z,50.93
2017-12-22T21:02:41.577Z,49.93
2017-12-22T21:05:08.988Z,45.50
2017-12-22T21:07:36.422Z,51.27
2017-12-22T21:10:03.845Z,50.80
2017-12-22T21:12:31.271Z,39.90
2017-12-22T21:14:58.631Z,42.77
2017-12-22T21:17:26.027Z,42.53
2017-12-22T21:19:53.434Z,47.10
2017-12-22T21:22:20.838Z,54.27
2017-12-22T21:24:48.228Z,43.60
2017-12-22T21:27:15.632Z,47.87
2017-12-22T21:29:43.122Z,57.27
2017-12-22T21:32:10.579Z,41.33
2017-12-22T21:34:37.975Z,44.97
2017-12-22T21:37:05.375Z,47.73
2017-12-22T21:39:32.759Z,52.13
2017-12-22T21:42:00.163Z,58.07
2017-12-22T21:44:27.555Z,60.87
2017-12-22T21:46:54.960Z,44.57
2017-12-22T21:49:22.350Z,41.03
2017-12-22T21:51:49.777Z,53.30
2017-12-22T21:54:17.174Z,42.07
2017-12-22T21:56:44.659Z,51.87
2017-12-22T21:59:12.109Z,48.87
2017-12-22T22:01:39.502Z,44.00
2017-12-22T22:04:06.908Z,43.27
2017-12-22T22:06:34.315Z,39.17
2017-12-22T22:09:01.706Z,52.23
2017-12-22T22:11:29.102Z,33.53
2017-12-22T22:13:56.867Z,40.83
2017-12-22T22:16:24.323Z,40.77
2017-12-22T22:18:51.762Z,39.17
2017-12-22T22:21:19.167Z,39.73
2017-12-22T22:23:46.555Z,38.90
2017-12-22T22:26:13.991Z,40.77
2017-12-22T22:28:41.403Z,45.03
2017-12-22T22:31:08.816Z,35.20
2017-12-22T22:33:36.788Z,37.87
2017-12-22T22:36:04.343Z,36.77
2017-12-22T22:38:31.836Z,35.37
2017-12-22T22:40:59.250Z,29.83
2017-12-22T22:43:26.640Z,30.97
2017-12-22T22:45:54.130Z,29.40
2017-12-22T22:48:21.792Z,24.80
2017-12-22T22:50:49.188Z,20.57
2017-12-22T22:53:16.663Z,29.80
2017-12-22T22:55:44.067Z,30.10
2017-12-22T22:58:11.489Z,31.37
2017-12-22T23:00:38.886Z,34.33
2017-12-22T23:03:06.398Z,33.70
2017-12-22T23:05:33.783Z,35.67
2017-12-22T23:08:01.179Z,39.30
2017-12-22T23:10:28.654Z,41.80
2017-12-22T23:12:56.063Z,42.90
2017-12-22T23:15:23.460Z,46.20
2017-12-22T23:17:50.854Z,39.80
2017-12-22T23:20:18.247Z,38.97
2017-12-22T23:22:45.663Z,35.80
2017-12-22T23:25:13.058Z,33.10
2017-12-22T23:27:40.472Z,28.50
2017-12-22T23:30:07.864Z,30.70
2017-12-22T23:32:35.283Z,26.70
2017-12-22T23:35:02.711Z,26.87
2017-12-22T23:37:30.129Z,41.87
2017-12-22T23:39:57.539Z,36.93
2017-12-22T23:42:24.945Z,51.63
2017-12-22T23:44:52.336Z,44.93
2017-12-22T23:47:19.726Z,44.07
2017-12-22T23:49:47.138Z,50.40
2017-12-22T23:52:14.538Z,42.13
2017-12-22T23:54:41.951Z,39.93
2017-12-22T23:57:09.378Z,43.83
2017-12-22T23:59:36.775Z,46.67
